Time;durP1;ratioP1;P1;durP2;ratioP2;P2;SDS_P1;SDS_P2;PMS_P1;PMS_P2;Temp;Humidity;BMP_temperature;BMP_pressure;BME280_temperature;BME280_humidity;BME280_pressure;Samples;Min_cycle;Max_cycle;Signal;HPM_P1;HPM_P2
2021/03/18 00:00:41;;;;;;;11.57;9.07;;;1.60;99.90;;;;;;5066594;28;20893;-69
2021/03/18 00:03:08;;;;;;;9.20;8.30;;;1.60;99.90;;;;;;5070862;28;20526;-69
2021/03/18 00:05:34;;;;;;;11.90;9.57;;;1.60;99.90;;;;;;5070435;28;20476;-69
2021/03/18 00:08:02;;;;;;;9.20;8.30;;;1.60;99.90;;;;;;5070731;28;20985;-69
2021/03/18 00:10:29;;;;;;;11.27;8.60;;;1.60;99.90;;;;;;5070224;28;20451;-69
2021/03/18 00:12:56;;;;;;;9.33;8.43;;;1.60;99.90;;;;;;5070997;28;20447;-70
2021/03/18 00:15:23;;;;;;;14.47;9.50;;;1.50;99.90;;;;;;5070886;28;20443;-69
2021/03/18 00:17:49;;;;;;;10.60;8.40;;;1.60;99.90;;;;;;5070722;28;20458;-69
2021/03/18 00:20:16;;;;;;;12.43;9.53;;;1.70;99.90;;;;;;5070648;28;20442;-69
2021/03/18 00:22:44;;;;;;;13.00;10.00;;;1.70;99.90;;;;;;5070772;28;20454;-69
2021/03/18 00:25:12;;;;;;;10.87;9.20;;;1.70;99.90;;;;;;5070661;28;20443;-69
2021/03/18 00:27:40;;;;;;;10.33;9.23;;;1.70;99.90;;;;;;5070490;28;20470;-69
2021/03/18 00:30:10;;;;;;;10.60;9.10;;;1.80;99.90;;;;;;5070261;28;20522;-69
2021/03/18 00:32:37;;;;;;;9.10;8.20;;;1.80;99.90;;;;;;5072431;28;20521;-68
2021/03/18 00:35:05;;;;;;;8.80;7.90;;;1.80;99.90;;;;;;5073915;28;20443;-70
2021/03/18 00:37:32;;;;;;;10.77;7.80;;;1.80;99.90;;;;;;5073642;28;20571;-69
2021/03/18 00:39:58;;;;;;;10.80;9.00;;;1.80;99.90;;;;;;5073829;28;20443;-69
2021/03/18 00:42:25;;;;;;;9.63;7.33;;;1.80;99.90;;;;;;5074066;28;20453;-69
2021/03/18 00:44:51;;;;;;;9.30;6.83;;;1.90;99.90;;;;;;5074060;28;20442;-68
2021/03/18 00:47:19;;;;;;;10.00;7.70;;;1.90;99.90;;;;;;5073728;28;20462;-69
2021/03/18 00:49:45;;;;;;;9.20;7.50;;;1.90;99.90;;;;;;5073188;28;20474;-68
2021/03/18 00:52:12;;;;;;;10.83;8.03;;;1.90;99.90;;;;;;5073867;28;20526;-68
2021/03/18 00:54:38;;;;;;;11.03;8.33;;;1.90;99.90;;;;;;5073646;28;20573;-69
2021/03/18 00:57:05;;;;;;;12.37;8.30;;;1.90;99.90;;;;;;5073439;28;20457;-69
2021/03/18 00:59:32;;;;;;;10.23;8.40;;;1.90;99.90;;;;;;5073147;28;20997;-69
2021/03/18 01:01:58;;;;;;;12.63;8.87;;;2.00;99.90;;;;;;5073423;28;20530;-70
2021/03/18 01:04:25;;;;;;;9.10;8.17;;;2.00;99.90;;;;;;5073043;28;20443;-69
2021/03/18 01:06:52;;;;;;;8.33;7.43;;;2.00;99.90;;;;;;5073696;28;20442;-69
2021/03/18 01:09:19;;;;;;;9.90;8.20;;;2.00;99.90;;;;;;5072829;28;21189;-69
2021/03/18 01:11:45;;;;;;;9.87;8.77;;;1.90;99.90;;;;;;5073198;28;20964;-69
2021/03/18 01:14:13;;;;;;;10.40;7.33;;;1.80;99.90;;;;;;5073349;28;20796;-69
2021/03/18 01:16:43;;;;;;;9.00;8.10;;;1.90;99.90;;;;;;5073166;28;20450;-69
2021/03/18 01:19:10;;;;;;;8.93;7.10;;;1.90;99.90;;;;;;5072548;28;20630;-69
2021/03/18 01:21:38;;;;;;;7.50;6.80;;;1.90;99.90;;;;;;5073218;28;20539;-69
2021/03/18 01:24:06;;;;;;;10.20;7.40;;;1.80;99.90;;;;;;5073252;28;20446;-69
2021/03/18 01:26:33;;;;;;;11.80;7.00;;;1.80;99.90;;;;;;5073007;28;20443;-69
2021/03/18 01:29:00;;;;;;;9.47;7.30;;;1.80;99.90;;;;;;5072525;28;21084;-69
2021/03/18 01:31:27;;;;;;;11.33;8.47;;;1.90;99.90;;;;;;5072810;28;20438;-69
2021/03/18 01:33:53;;;;;;;8.10;7.30;;;1.90;99.90;;;;;;5073123;28;20512;-69
2021/03/18 01:36:19;;;;;;;9.53;7.43;;;1.90;99.90;;;;;;5072915;28;20445;-69
2021/03/18 01:38:47;;;;;;;10.33;8.37;;;1.80;99.90;;;;;;5072292;28;20471;-70
2021/03/18 01:41:15;;;;;;;9.70;6.83;;;1.80;99.90;;;;;;5072690;28;20451;-70
2021/03/18 01:43:42;;;;;;;10.30;7.30;;;1.80;99.90;;;;;;5071855;28;20500;-69
2021/03/18 01:46:11;;;;;;;7.87;6.23;;;1.80;99.90;;;;;;5072656;28;20995;-68
2021/03/18 01:48:37;;;;;;;10.57;7.10;;;1.80;99.90;;;;;;5072245;28;20484;-69
2021/03/18 01:51:05;;;;;;;7.63;6.37;;;1.80;99.90;;;;;;5072481;28;20443;-69
2021/03/18 01:53:32;;;;;;;11.57;6.33;;;1.80;99.90;;;;;;5072397;28;20443;-68
2021/03/18 01:56:01;;;;;;;8.63;6.87;;;1.80;99.90;;;;;;5072552;28;20447;-69
2021/03/18 01:58:28;;;;;;;6.93;5.73;;;1.80;99.90;;;;;;5071974;28;20467;-70
2021/03/18 02:00:58;;;;;;;6.60;5.70;;;1.80;99.90;;;;;;5072229;28;20443;-69
2021/03/18 02:03:38;;;;;;;7.90;6.20;;;1.80;99.90;;;;;;5072151;28;20443;-69
2021/03/18 02:06:05;;;;;;;7.20;6.50;;;1.90;99.90;;;;;;5072286;28;20447;-69
2021/03/18 02:08:31;;;;;;;8.30;5.60;;;1.90;99.90;;;;;;5071782;28;20483;-68
2021/03/18 02:10:58;;;;;;;9.50;6.20;;;1.90;99.90;;;;;;5072064;28;20501;-69
2021/03/18 02:13:25;;;;;;;7.10;5.53;;;1.80;99.90;;;;;;5072121;28;20504;-70
2021/03/18 02:15:55;;;;;;;5.97;5.17;;;1.80;99.90;;;;;;5072474;28;20473;-68
2021/03/18 02:18:29;;;;;;;8.83;6.40;;;1.80;99.90;;;;;;5071727;28;20546;-70
2021/03/18 02:21:21;;;;;;;5.97;5.10;;;1.80;99.90;;;;;;5072135;28;20453;-69
2021/03/18 02:24:22;;;;;;;7.30;5.80;;;1.70;99.90;;;;;;5072084;28;20517;-69
2021/03/18 02:27:25;;;;;;;8.13;6.03;;;1.70;99.90;;;;;;5072049;28;20443;-69
2021/03/18 02:30:20;;;;;;;7.00;6.30;;;1.80;99.90;;;;;;5071288;28;20877;-69
2021/03/18 02:33:04;;;;;;;8.13;4.90;;;1.70;99.90;;;;;;5071515;28;20453;-68
2021/03/18 02:35:33;;;;;;;9.03;6.30;;;1.70;99.90;;;;;;5071826;28;20449;-69
2021/03/18 02:38:05;;;;;;;7.53;5.83;;;1.80;99.90;;;;;;5071865;28;20471;-69
2021/03/18 02:40:33;;;;;;;7.17;6.20;;;1.70;99.90;;;;;;5071338;28;20454;-69
2021/03/18 02:43:03;;;;;;;7.17;5.83;;;1.60;99.90;;;;;;5072152;28;20449;-69
2021/03/18 02:45:34;;;;;;;6.80;5.67;;;1.70;99.90;;;;;;5071982;28;20950;-69
2021/03/18 02:48:03;;;;;;;10.83;6.60;;;1.70;99.90;;;;;;5071688;28;20473;-69
2021/03/18 02:50:33;;;;;;;8.13;6.40;;;1.80;99.90;;;;;;5071740;28;20451;-69
2021/03/18 02:53:01;;;;;;;7.53;6.00;;;1.80;99.90;;;;;;5071877;28;20447;-69
2021/03/18 02:55:28;;;;;;;6.80;5.20;;;1.80;99.90;;;;;;5070934;28;20447;-68
2021/03/18 02:57:57;;;;;;;9.23;6.17;;;1.70;99.90;;;;;;5071227;28;20473;-69
2021/03/18 03:00:25;;;;;;;7.60;6.17;;;1.70;99.90;;;;;;5070956;28;20447;-69
2021/03/18 03:02:53;;;;;;;7.07;5.97;;;1.70;99.90;;;;;;5071111;28;20451;-69
2021/03/18 03:05:22;;;;;;;9.50;5.70;;;1.70;99.90;;;;;;5071134;28;20469;-69
2021/03/18 03:07:50;;;;;;;8.03;5.47;;;1.70;99.90;;;;;;5071134;28;20521;-69
2021/03/18 03:10:19;;;;;;;8.63;5.50;;;1.80;99.90;;;;;;5070833;28;20478;-70
2021/03/18 03:12:47;;;;;;;5.17;4.67;;;1.80;99.90;;;;;;5071078;28;20477;-70
2021/03/18 03:15:15;;;;;;;6.83;4.70;;;1.90;99.90;;;;;;5071024;28;20443;-70
2021/03/18 03:17:43;;;;;;;6.07;5.03;;;1.90;99.90;;;;;;5070760;28;20668;-69
2021/03/18 03:20:11;;;;;;;8.20;5.40;;;1.90;99.90;;;;;;5070814;28;20434;-70
2021/03/18 03:22:39;;;;;;;6.17;4.90;;;1.90;99.90;;;;;;5071013;28;20522;-69
2021/03/18 03:25:08;;;;;;;7.37;5.70;;;1.90;99.90;;;;;;5070781;28;20832;-69
2021/03/18 03:27:35;;;;;;;7.23;5.60;;;2.00;99.90;;;;;;5070632;28;20875;-69
2021/03/18 03:30:04;;;;;;;6.80;5.00;;;2.10;99.90;;;;;;5070322;28;20497;-69
2021/03/18 03:32:31;;;;;;;7.90;5.13;;;2.10;99.90;;;;;;5070617;28;20813;-69
2021/03/18 03:34:58;;;;;;;7.43;5.37;;;2.10;99.90;;;;;;5070804;28;20443;-68
2021/03/18 03:37:24;;;;;;;7.57;6.13;;;2.10;99.90;;;;;;5070670;28;20479;-69
2021/03/18 03:39:51;;;;;;;6.60;5.50;;;2.20;99.90;;;;;;5070492;28;20446;-69
2021/03/18 03:42:18;;;;;;;7.73;4.67;;;2.10;99.90;;;;;;5070623;28;20443;-69
2021/03/18 03:44:44;;;;;;;8.60;5.60;;;2.10;99.90;;;;;;5070603;28;20439;-70
2021/03/18 03:47:12;;;;;;;9.30;5.00;;;2.10;99.90;;;;;;5070514;28;20446;-69
2021/03/18 03:49:39;;;;;;;7.83;5.30;;;2.00;99.90;;;;;;5070320;28;21005;-69
2021/03/18 03:52:16;;;;;;;7.10;5.20;;;2.00;99.90;;;;;;5070711;28;20443;-69
2021/03/18 03:54:49;;;;;;;7.20;5.23;;;2.10;99.90;;;;;;5070532;28;20481;-68
2021/03/18 03:57:23;;;;;;;7.67;5.23;;;2.10;99.90;;;;;;5070477;28;20442;-68
2021/03/18 03:59:52;;;;;;;6.47;5.53;;;2.10;99.90;;;;;;5070230;28;20438;-69
2021/03/18 04:02:19;;;;;;;8.03;6.17;;;2.10;99.90;;;;;;5070467;28;20447;-69
2021/03/18 04:04:47;;;;;;;7.20;5.73;;;2.00;99.90;;;;;;5070525;28;20446;-69
2021/03/18 04:07:16;;;;;;;6.93;5.10;;;2.00;99.90;;;;;;5092263;28;20904;-68
2021/03/18 04:09:45;;;;;;;8.17;5.13;;;2.00;99.90;;;;;;5094312;28;20515;-69
2021/03/18 04:12:14;;;;;;;8.10;5.97;;;1.90;99.90;;;;;;5095066;28;20442;-69
2021/03/18 04:14:46;;;;;;;7.70;5.43;;;1.90;99.90;;;;;;5094893;28;20446;-68
2021/03/18 04:17:14;;;;;;;7.70;6.03;;;2.00;99.90;;;;;;5094769;28;20491;-68
2021/03/18 04:19:46;;;;;;;6.50;5.40;;;2.00;99.90;;;;;;5094408;28;20472;-69
2021/03/18 04:22:13;;;;;;;7.80;5.83;;;2.00;99.90;;;;;;5094614;28;20527;-68
2021/03/18 04:24:41;;;;;;;12.67;6.10;;;2.00;99.90;;;;;;5094737;28;20444;-69
2021/03/18 04:27:08;;;;;;;8.13;5.50;;;2.00;99.90;;;;;;5094617;28;20448;-69
2021/03/18 04:29:38;;;;;;;9.30;6.80;;;2.00;99.90;;;;;;5094312;28;21027;-68
2021/03/18 04:32:06;;;;;;;7.70;5.60;;;2.00;99.90;;;;;;5094515;28;20450;-69
2021/03/18 04:34:34;;;;;;;7.97;5.53;;;1.90;99.90;;;;;;5094194;28;20995;-69
2021/03/18 04:37:03;;;;;;;5.70;4.77;;;1.90;99.90;;;;;;5094215;28;20863;-69
2021/03/18 04:39:30;;;;;;;7.40;5.67;;;2.00;99.90;;;;;;5094088;28;20837;-69
2021/03/18 04:41:56;;;;;;;10.40;6.53;;;2.00;99.90;;;;;;5094133;28;20438;-69
2021/03/18 04:44:23;;;;;;;7.93;6.00;;;2.00;99.90;;;;;;5094276;28;20430;-68
2021/03/18 04:46:50;;;;;;;7.40;5.90;;;2.00;99.90;;;;;;5094099;28;20448;-68
2021/03/18 04:49:19;;;;;;;5.93;4.87;;;2.00;99.90;;;;;;5093692;28;20492;-69
2021/03/18 04:51:47;;;;;;;7.10;5.30;;;1.90;99.90;;;;;;5094317;28;20540;-69
2021/03/18 04:54:14;;;;;;;7.27;5.63;;;1.90;99.90;;;;;;5094265;28;20448;-69
2021/03/18 04:56:43;;;;;;;8.87;6.80;;;1.90;99.90;;;;;;5094249;28;20490;-69
2021/03/18 04:59:09;;;;;;;11.30;6.20;;;1.90;99.90;;;;;;5093531;28;20511;-69
2021/03/18 05:01:37;;;;;;;6.87;6.00;;;1.90;99.90;;;;;;5094163;28;20498;-69
2021/03/18 05:04:05;;;;;;;6.07;5.10;;;1.90;99.90;;;;;;5093707;28;20444;-69
2021/03/18 05:06:34;;;;;;;8.20;5.60;;;1.90;99.90;;;;;;5095189;28;20447;-68
2021/03/18 05:09:01;;;;;;;12.20;6.03;;;1.90;99.90;;;;;;5093437;28;21040;-67
2021/03/18 05:11:28;;;;;;;7.57;6.73;;;2.00;99.90;;;;;;5093937;28;20467;-68
2021/03/18 05:13:55;;;;;;;8.70;5.70;;;1.90;99.90;;;;;;5093488;28;20937;-69
2021/03/18 05:16:22;;;;;;;10.50;6.03;;;1.90;99.90;;;;;;5093673;28;20812;-68
2021/03/18 05:18:48;;;;;;;12.23;5.07;;;1.90;99.90;;;;;;5091998;28;20946;-69
2021/03/18 05:21:15;;;;;;;7.57;5.50;;;1.90;99.90;;;;;;5093905;28;20467;-68
2021/03/18 05:23:43;;;;;;;9.80;5.83;;;1.90;99.90;;;;;;5093591;28;20932;-69
2021/03/18 05:26:10;;;;;;;8.10;5.30;;;1.90;99.90;;;;;;5093584;28;20446;-68
2021/03/18 05:28:37;;;;;;;6.40;5.40;;;2.00;99.90;;;;;;5092826;28;20572;-68
2021/03/18 05:31:03;;;;;;;11.47;6.00;;;2.00;99.90;;;;;;5093215;28;20487;-67
2021/03/18 05:33:29;;;;;;;10.93;5.80;;;2.10;99.90;;;;;;5093186;28;20448;-68
2021/03/18 05:35:56;;;;;;;5.90;5.23;;;2.00;99.90;;;;;;5093382;28;20461;-67
2021/03/18 05:38:23;;;;;;;8.40;6.27;;;2.00;99.90;;;;;;5092663;28;20476;-68
2021/03/18 05:40:55;;;;;;;9.33;6.47;;;2.00;99.90;;;;;;5093011;28;20831;-68
2021/03/18 05:43:22;;;;;;;9.67;5.70;;;2.10;99.90;;;;;;5092860;28;20465;-69
2021/03/18 05:45:49;;;;;;;8.13;6.60;;;2.10;99.90;;;;;;5092917;28;20446;-70
2021/03/18 05:48:17;;;;;;;9.00;6.47;;;2.10;99.90;;;;;;5092969;28;20977;-69
2021/03/18 05:50:44;;;;;;;8.53;6.47;;;2.00;99.90;;;;;;5091970;28;20887;-68
2021/03/18 05:53:12;;;;;;;7.13;6.27;;;2.00;99.90;;;;;;5091652;28;20540;-69
2021/03/18 05:55:39;;;;;;;8.07;5.80;;;2.00;99.90;;;;;;5092865;28;20445;-70
2021/03/18 05:58:08;;;;;;;8.43;5.30;;;2.00;99.90;;;;;;5092621;28;20470;-69
2021/03/18 06:00:36;;;;;;;8.20;6.53;;;2.00;99.90;;;;;;5092717;28;20585;-69
2021/03/18 06:03:02;;;;;;;10.50;7.33;;;2.00;99.90;;;;;;5092835;28;20964;-68
2021/03/18 06:05:29;;;;;;;9.30;6.10;;;2.10;99.90;;;;;;5092897;28;20438;-67
2021/03/18 06:07:56;;;;;;;9.90;6.30;;;2.10;99.90;;;;;;5092715;28;20493;-69
2021/03/18 06:10:24;;;;;;;7.13;5.80;;;2.00;99.90;;;;;;5092131;28;20481;-69
2021/03/18 06:12:51;;;;;;;9.80;4.97;;;2.10;99.90;;;;;;5092262;28;20525;-70
2021/03/18 06:15:20;;;;;;;13.67;6.50;;;2.10;99.90;;;;;;5092592;28;20443;-70
2021/03/18 06:17:46;;;;;;;12.83;5.60;;;2.20;99.90;;;;;;5092677;28;20534;-69
2021/03/18 06:20:14;;;;;;;8.43;5.80;;;2.20;99.90;;;;;;5091950;28;20473;-68
2021/03/18 06:22:42;;;;;;;7.67;5.80;;;2.40;99.90;;;;;;5092232;28;20442;-69
2021/03/18 06:25:21;;;;;;;7.10;5.47;;;2.50;99.90;;;;;;5086967;28;20797;-72
2021/03/18 06:27:48;;;;;;;7.03;6.10;;;2.70;99.90;;;;;;5091893;28;20493;-72
2021/03/18 06:30:16;;;;;;;8.27;5.90;;;2.80;99.90;;;;;;5083546;28;20500;-68
2021/03/18 06:32:43;;;;;;;8.47;6.47;;;2.90;99.90;;;;;;5085992;28;20470;-69
2021/03/18 06:35:11;;;;;;;8.07;5.43;;;3.00;99.90;;;;;;5091476;28;20438;-69
2021/03/18 06:37:40;;;;;;;8.13;5.07;;;3.00;99.90;;;;;;5091681;28;20466;-70
2021/03/18 06:40:15;;;;;;;7.27;5.27;;;3.10;99.90;;;;;;5091668;28;20513;-70
2021/03/18 06:42:43;;;;;;;8.70;5.60;;;3.10;99.90;;;;;;5091818;28;20441;-69
2021/03/18 06:45:12;;;;;;;5.53;4.80;;;3.20;99.90;;;;;;5089724;28;20547;-69
2021/03/18 06:47:44;;;;;;;9.27;6.37;;;3.30;99.90;;;;;;5091727;28;20470;-69
2021/03/18 06:50:12;;;;;;;6.83;5.43;;;3.40;99.90;;;;;;5090617;28;20565;-69
2021/03/18 06:52:40;;;;;;;11.53;5.37;;;3.50;99.90;;;;;;5091689;28;20442;-71
2021/03/18 06:55:08;;;;;;;7.70;5.30;;;3.60;99.90;;;;;;5088412;28;20442;-69
2021/03/18 06:57:35;;;;;;;8.10;4.80;;;3.60;99.90;;;;;;5091537;28;20472;-70
2021/03/18 07:00:03;;;;;;;6.23;5.13;;;3.70;99.90;;;;;;5096532;28;20426;-69
2021/03/18 07:02:29;;;;;;;7.20;5.73;;;3.70;99.90;;;;;;5095355;28;20474;-70
2021/03/18 07:04:57;;;;;;;7.23;6.37;;;3.70;99.90;;;;;;5090800;28;20583;-70
2021/03/18 07:07:25;;;;;;;9.10;6.03;;;3.70;99.90;;;;;;5091262;28;20770;-69
2021/03/18 07:09:54;;;;;;;7.20;5.00;;;3.70;99.90;;;;;;5091031;28;20473;-69
2021/03/18 07:12:27;;;;;;;9.83;5.37;;;3.70;99.90;;;;;;5091146;28;20487;-69
2021/03/18 07:14:56;;;;;;;7.80;5.00;;;3.80;99.90;;;;;;5091251;28;20456;-69
2021/03/18 07:17:29;;;;;;;6.30;5.00;;;3.80;99.90;;;;;;5090821;28;20494;-69
2021/03/18 07:20:10;;;;;;;8.40;5.40;;;3.80;99.90;;;;;;5091283;28;20438;-69
2021/03/18 07:22:41;;;;;;;10.50;5.47;;;3.80;99.90;;;;;;5090964;28;20813;-69
2021/03/18 07:25:09;;;;;;;11.30;5.90;;;3.70;99.90;;;;;;5091295;28;20442;-69
2021/03/18 07:27:40;;;;;;;7.20;6.10;;;3.80;99.90;;;;;;5090986;28;20466;-70
2021/03/18 07:30:08;;;;;;;9.20;5.90;;;3.90;99.90;;;;;;5090807;28;20496;-69
2021/03/18 07:32:35;;;;;;;7.17;6.13;;;4.00;99.90;;;;;;5091026;28;20442;-69
2021/03/18 07:35:01;;;;;;;7.10;5.67;;;4.10;99.90;;;;;;5091071;28;20452;-69
2021/03/18 07:37:28;;;;;;;6.23;4.70;;;4.10;99.90;;;;;;5090723;28;20470;-69
2021/03/18 07:39:55;;;;;;;7.90;5.00;;;4.10;99.90;;;;;;5091650;28;20834;-69
2021/03/18 07:42:22;;;;;;;8.20;5.33;;;4.20;99.90;;;;;;5090411;28;20487;-69
2021/03/18 07:44:49;;;;;;;9.43;5.77;;;4.20;99.90;;;;;;5091104;28;20446;-68
2021/03/18 07:47:16;;;;;;;5.60;4.90;;;4.10;99.90;;;;;;5090845;28;20517;-68
2021/03/18 07:49:46;;;;;;;10.20;4.73;;;4.20;99.90;;;;;;5090518;28;21087;-69
2021/03/18 07:52:17;;;;;;;8.83;4.97;;;4.30;99.90;;;;;;5090936;28;20935;-68
2021/03/18 07:54:46;;;;;;;6.97;5.50;;;4.30;99.90;;;;;;5088960;28;20446;-68
2021/03/18 07:57:14;;;;;;;4.93;4.40;;;4.30;99.90;;;;;;5091183;28;20446;-69
2021/03/18 07:59:41;;;;;;;6.90;5.10;;;4.30;99.90;;;;;;5091123;28;20824;-69
2021/03/18 08:02:12;;;;;;;12.57;5.67;;;4.30;99.90;;;;;;5091366;28;20511;-68
2021/03/18 08:04:43;;;;;;;6.50;5.07;;;4.20;99.90;;;;;;5091093;28;20555;-69
2021/03/18 08:07:10;;;;;;;9.40;5.07;;;4.20;99.90;;;;;;5090868;28;20828;-69
2021/03/18 08:10:01;;;;;;;5.80;4.83;;;4.20;99.90;;;;;;5090582;28;20590;-69
2021/03/18 08:12:46;;;;;;;8.97;5.57;;;4.20;99.90;;;;;;5091071;28;20470;-69
2021/03/18 08:15:27;;;;;;;7.77;5.70;;;4.20;99.90;;;;;;5078199;28;20538;-68
2021/03/18 08:17:55;;;;;;;11.70;5.50;;;4.10;99.90;;;;;;5090696;28;20549;-69
2021/03/18 08:21:01;;;;;;;9.60;6.07;;;4.10;99.90;;;;;;5090728;28;20430;-68
2021/03/18 08:24:01;;;;;;;8.87;5.30;;;4.10;99.90;;;;;;5089611;28;20431;-69
2021/03/18 08:26:48;;;;;;;9.37;6.13;;;4.20;99.90;;;;;;5087961;28;20524;-69
2021/03/18 08:29:20;;;;;;;8.53;5.53;;;4.20;99.90;;;;;;5088892;28;20478;-68
2021/03/18 08:32:01;;;;;;;10.87;6.17;;;4.30;99.90;;;;;;5088053;28;20525;-69
2021/03/18 08:34:53;;;;;;;8.87;6.43;;;4.50;99.90;;;;;;5070729;28;20442;-69
2021/03/18 08:39:51;;;;;;;8.60;5.40;;;5.00;99.90;;;;;;5066733;23;20518;-68
2021/03/18 08:42:39;;;;;;;7.87;5.93;;;5.40;99.90;;;;;;5033250;28;20550;-67
2021/03/18 08:45:12;;;;;;;7.07;4.93;;;5.60;99.90;;;;;;5032639;28;20449;-66
2021/03/18 08:47:44;;;;;;;7.27;5.50;;;5.70;99.90;;;;;;5030904;28;20587;-66
2021/03/18 08:50:12;;;;;;;7.90;5.70;;;5.70;99.90;;;;;;5029993;28;20480;-66
2021/03/18 08:52:41;;;;;;;7.50;5.27;;;5.60;99.90;;;;;;5042277;23;20484;-69
2021/03/18 08:55:10;;;;;;;9.23;5.57;;;5.60;99.90;;;;;;5029324;28;20859;-70
2021/03/18 08:57:38;;;;;;;9.33;6.00;;;5.50;99.90;;;;;;5014435;28;20453;-69
2021/03/18 09:00:13;;;;;;;9.83;5.53;;;5.40;99.90;;;;;;5014142;28;20813;-69
2021/03/18 09:02:40;;;;;;;9.50;6.10;;;5.50;99.90;;;;;;5024133;28;20491;-69
2021/03/18 09:05:11;;;;;;;8.80;5.60;;;5.70;99.90;;;;;;5033419;28;20452;-70
2021/03/18 09:07:38;;;;;;;9.57;6.40;;;6.20;99.90;;;;;;5026657;28;20445;-70
2021/03/18 09:10:12;;;;;;;11.30;6.43;;;6.50;99.90;;;;;;5033508;28;20491;-70
2021/03/18 09:12:49;;;;;;;14.80;6.50;;;6.70;99.90;;;;;;5034293;28;20968;-70
2021/03/18 09:15:22;;;;;;;7.90;6.07;;;7.40;99.90;;;;;;5033579;28;20476;-70
2021/03/18 09:17:51;;;;;;;7.33;6.00;;;8.20;99.90;;;;;;5033227;28;20491;-70
2021/03/18 09:20:21;;;;;;;8.93;6.10;;;9.00;99.90;;;;;;5031922;28;20473;-70
2021/03/18 09:22:47;;;;;;;8.83;5.90;;;9.60;99.90;;;;;;5032988;28;20528;-70
2021/03/18 09:25:15;;;;;;;6.97;5.30;;;10.20;99.90;;;;;;5030865;28;20473;-70
2021/03/18 09:27:44;;;;;;;8.30;5.47;;;10.70;99.90;;;;;;5025285;28;20845;-70
2021/03/18 09:30:23;;;;;;;8.47;6.00;;;11.20;99.90;;;;;;5016713;28;20519;-70
2021/03/18 09:32:51;;;;;;;6.60;5.43;;;11.20;99.90;;;;;;5023813;28;20543;-70
2021/03/18 09:35:19;;;;;;;6.33;5.20;;;11.70;99.90;;;;;;5025361;28;20540;-70
2021/03/18 09:37:46;;;;;;;8.70;6.10;;;11.80;99.50;;;;;;5015232;28;21029;-70
2021/03/18 09:40:16;;;;;;;6.53;5.27;;;11.70;98.30;;;;;;5027513;28;20446;-70
2021/03/18 09:42:44;;;;;;;10.57;5.60;;;11.30;97.80;;;;;;5017136;28;20520;-71
2021/03/18 09:45:18;;;;;;;8.17;6.20;;;10.30;97.90;;;;;;5022161;28;20446;-71
2021/03/18 09:47:48;;;;;;;12.30;6.90;;;9.20;99.90;;;;;;5034205;28;20804;-70
2021/03/18 09:50:15;;;;;;;10.27;6.57;;;8.30;99.90;;;;;;5023762;28;20481;-70
2021/03/18 09:52:41;;;;;;;8.37;6.10;;;7.80;99.90;;;;;;5017519;28;20512;-69
2021/03/18 09:55:12;;;;;;;7.97;5.90;;;7.30;99.90;;;;;;5012809;28;20482;-68
2021/03/18 09:57:38;;;;;;;6.23;5.27;;;7.10;99.90;;;;;;5012906;28;20462;-68
2021/03/18 10:00:09;;;;;;;7.17;5.60;;;7.20;99.90;;;;;;5012293;28;20457;-68
2021/03/18 10:02:35;;;;;;;7.70;5.70;;;7.10;99.90;;;;;;5013097;28;20465;-68
2021/03/18 10:05:02;;;;;;;6.70;5.67;;;7.20;99.90;;;;;;5012122;28;20489;-69
2021/03/18 10:07:31;;;;;;;8.13;5.57;;;7.20;99.90;;;;;;5018863;28;20489;-69
2021/03/18 10:09:57;;;;;;;7.53;5.23;;;7.30;99.90;;;;;;5032071;28;20523;-69
2021/03/18 10:12:26;;;;;;;6.63;4.80;;;7.50;99.90;;;;;;5029924;28;20501;-69
2021/03/18 10:14:56;;;;;;;7.77;5.40;;;7.60;99.90;;;;;;5012277;28;20444;-69
2021/03/18 10:17:26;;;;;;;8.90;6.10;;;7.70;99.90;;;;;;5012862;28;20497;-70
2021/03/18 10:19:59;;;;;;;6.37;5.40;;;7.60;99.90;;;;;;5011746;28;20577;-68
2021/03/18 10:22:31;;;;;;;8.20;6.00;;;7.70;99.90;;;;;;5011821;28;20561;-68
2021/03/18 10:25:04;;;;;;;9.73;5.80;;;7.50;99.90;;;;;;5011858;28;20970;-68
2021/03/18 10:27:33;;;;;;;13.97;5.40;;;7.40;99.90;;;;;;5012143;28;20485;-68
2021/03/18 10:30:12;;;;;;;6.27;5.67;;;7.30;99.90;;;;;;5011849;28;20569;-67
2021/03/18 10:32:41;;;;;;;9.57;6.33;;;7.40;99.90;;;;;;5015521;28;20462;-68
2021/03/18 10:35:10;;;;;;;7.40;5.97;;;7.20;99.90;;;;;;5028583;28;20445;-68
2021/03/18 10:37:39;;;;;;;10.20;6.20;;;7.20;99.90;;;;;;5024393;28;20938;-69
2021/03/18 10:40:16;;;;;;;10.90;6.00;;;7.20;99.90;;;;;;5014886;28;20533;-69
2021/03/18 10:42:43;;;;;;;6.87;5.90;;;7.10;99.90;;;;;;5031554;28;20503;-69
2021/03/18 10:45:14;;;;;;;9.73;6.60;;;7.20;99.90;;;;;;5031712;28;20528;-69
2021/03/18 10:47:43;;;;;;;7.23;6.23;;;8.00;99.90;;;;;;5031471;28;20895;-69
2021/03/18 10:50:12;;;;;;;6.87;5.57;;;8.70;99.90;;;;;;5031014;28;20575;-69
2021/03/18 10:52:40;;;;;;;8.03;5.13;;;9.10;99.90;;;;;;5031087;28;21076;-69
2021/03/18 10:55:08;;;;;;;12.13;5.63;;;9.20;99.90;;;;;;5031545;28;20449;-69
2021/03/18 10:57:35;;;;;;;11.43;5.70;;;9.30;99.90;;;;;;5031647;28;20524;-69
2021/03/18 11:00:05;;;;;;;11.33;5.43;;;9.00;99.90;;;;;;5031088;28;20441;-69
2021/03/18 11:02:32;;;;;;;6.27;5.30;;;8.40;99.20;;;;;;5031072;28;20460;-69
2021/03/18 11:05:01;;;;;;;8.47;5.13;;;8.30;99.80;;;;;;5031344;28;20882;-69
2021/03/18 11:07:28;;;;;;;6.27;4.70;;;8.10;99.90;;;;;;5031108;28;20444;-69
2021/03/18 11:10:10;;;;;;;4.97;4.17;;;8.10;99.10;;;;;;5030871;28;21015;-69
2021/03/18 11:12:38;;;;;;;10.60;7.03;;;8.30;99.90;;;;;;5031002;28;20540;-69
2021/03/18 11:15:06;;;;;;;5.90;5.13;;;8.60;99.50;;;;;;5031101;28;21036;-69
2021/03/18 11:17:32;;;;;;;6.60;5.10;;;8.90;97.90;;;;;;5030384;28;20480;-69
2021/03/18 11:20:14;;;;;;;6.60;4.73;;;9.60;96.90;;;;;;5026572;28;20469;-69
2021/03/18 11:22:41;;;;;;;6.93;3.90;;;10.90;96.60;;;;;;5011176;28;20554;-69
2021/03/18 11:25:09;;;;;;;5.97;4.30;;;12.50;94.80;;;;;;5011164;28;20970;-69
2021/03/18 11:27:37;;;;;;;6.10;4.30;;;13.80;92.50;;;;;;5021890;28;20532;-69
2021/03/18 11:30:05;;;;;;;7.17;4.47;;;14.90;87.10;;;;;;5010953;28;20560;-69
2021/03/18 11:32:32;;;;;;;5.17;4.50;;;15.10;84.00;;;;;;5024359;28;20499;-69
2021/03/18 11:35:00;;;;;;;5.83;5.10;;;15.00;80.90;;;;;;5011777;28;20921;-69
2021/03/18 11:37:28;;;;;;;5.63;4.67;;;15.20;81.60;;;;;;5016144;28;20927;-70
2021/03/18 11:39:55;;;;;;;7.10;4.83;;;13.50;82.70;;;;;;5010592;28;20878;-68
2021/03/18 11:42:21;;;;;;;4.80;4.33;;;11.70;87.30;;;;;;5011133;28;20544;-68
2021/03/18 11:44:48;;;;;;;7.60;5.30;;;10.10;90.80;;;;;;5010933;28;20478;-68
2021/03/18 11:47:15;;;;;;;6.63;4.80;;;9.20;93.70;;;;;;5011202;28;20453;-68
2021/03/18 11:49:44;;;;;;;4.93;4.23;;;8.10;95.50;;;;;;5011063;28;20508;-67
2021/03/18 11:52:11;;;;;;;8.73;4.23;;;7.40;98.90;;;;;;5013198;28;20838;-67
2021/03/18 11:54:39;;;;;;;6.93;4.07;;;7.20;99.90;;;;;;5017443;28;20477;-68
2021/03/18 11:57:06;;;;;;;4.83;4.33;;;7.20;99.20;;;;;;5012374;28;20493;-67
2021/03/18 11:59:33;;;;;;;5.07;4.13;;;7.10;98.50;;;;;;5011450;28;20466;-68
2021/03/18 12:01:59;;;;;;;5.63;3.83;;;7.20;98.90;;;;;;5011110;28;20954;-67
2021/03/18 12:04:26;;;;;;;5.87;4.43;;;7.10;98.60;;;;;;5011581;28;20504;-68
2021/03/18 12:06:52;;;;;;;5.50;4.67;;;6.90;98.20;;;;;;5015217;28;20446;-68
2021/03/18 12:09:19;;;;;;;5.13;4.10;;;6.80;97.70;;;;;;5023226;28;20489;-68
2021/03/18 12:11:46;;;;;;;4.97;3.73;;;6.70;98.70;;;;;;5011321;28;20481;-67
2021/03/18 12:14:13;;;;;;;7.77;4.80;;;6.80;97.30;;;;;;5010972;28;20909;-68
2021/03/18 12:16:39;;;;;;;6.20;4.20;;;7.00;97.50;;;;;;5011343;28;20485;-67
2021/03/18 12:19:06;;;;;;;4.60;3.90;;;7.10;97.70;;;;;;5011490;28;20445;-68
2021/03/18 12:21:32;;;;;;;4.97;4.13;;;7.20;96.30;;;;;;5011524;28;20973;-67
2021/03/18 12:23:58;;;;;;;7.73;4.10;;;7.30;96.40;;;;;;5010966;28;20726;-68
2021/03/18 12:26:25;;;;;;;5.53;4.00;;;7.40;97.20;;;;;;5011012;28;20474;-68
2021/03/18 12:28:52;;;;;;;6.03;3.83;;;7.80;96.90;;;;;;5013069;28;20478;-68
2021/03/18 12:31:18;;;;;;;6.33;5.00;;;8.20;96.20;;;;;;5014820;28;20525;-68
2021/03/18 12:33:45;;;;;;;7.77;6.30;;;8.50;97.90;;;;;;5014544;28;20499;-68
2021/03/18 12:36:12;;;;;;;6.37;5.00;;;8.40;99.90;;;;;;5014455;28;20513;-68
2021/03/18 12:38:38;;;;;;;8.40;5.23;;;8.40;99.90;;;;;;5014335;28;20449;-68
2021/03/18 12:41:05;;;;;;;5.67;5.00;;;9.00;99.90;;;;;;5015566;28;20820;-68
2021/03/18 12:43:31;;;;;;;6.00;4.30;;;9.40;99.50;;;;;;5015168;28;21183;-68
2021/03/18 12:45:58;;;;;;;6.07;4.30;;;10.00;97.80;;;;;;5014827;28;20825;-68
2021/03/18 12:48:25;;;;;;;5.07;4.27;;;10.80;96.60;;;;;;5013279;28;20485;-68
2021/03/18 12:50:51;;;;;;;7.27;4.70;;;10.60;94.90;;;;;;5014589;28;20509;-68
2021/03/18 12:53:17;;;;;;;9.43;4.63;;;9.90;96.00;;;;;;5033885;28;20473;-68
2021/03/18 12:55:48;;;;;;;7.47;4.40;;;9.20;97.60;;;;;;5024536;28;20942;-67
2021/03/18 12:58:14;;;;;;;5.70;3.77;;;8.10;98.90;;;;;;5032939;28;20451;-68
2021/03/18 13:00:41;;;;;;;7.00;4.03;;;7.60;99.70;;;;;;5033516;28;21057;-68
2021/03/18 13:03:08;;;;;;;6.87;4.00;;;8.50;99.90;;;;;;5033134;28;20496;-68
2021/03/18 13:05:35;;;;;;;5.90;4.07;;;9.60;98.20;;;;;;5033155;28;20433;-68
2021/03/18 13:10:44;;;;;;;8.27;4.47;;;8.70;99.20;;;;;;5592781;23;20953;-69